Time;durP1;ratioP1;P1;durP2;ratioP2;P2;SDS_P1;SDS_P2;PMS_P1;PMS_P2;Temp;Humidity;BMP_temperature;BMP_pressure;BME280_temperature;BME280_humidity;BME280_pressure;Samples;Min_cycle;Max_cycle;Signal;HPM_P1;HPM_P2
2022/12/21 00:01:24;;;;;;;6.22;5.63;;;20.70;45.90;;;;;;5040280;28;20072;-50
2022/12/21 00:03:54;;;;;;;7.15;6.30;;;20.70;45.90;;;;;;5047108;28;20032;-53
2022/12/21 00:06:21;;;;;;;6.85;5.85;;;20.70;45.80;;;;;;5050592;28;20048;-54
2022/12/21 00:08:49;;;;;;;7.40;6.28;;;20.70;45.80;;;;;;5048572;28;20044;-52
2022/12/21 00:11:15;;;;;;;8.10;6.57;;;20.70;45.80;;;;;;5047432;28;20029;-54
2022/12/21 00:13:42;;;;;;;7.45;5.85;;;20.70;45.80;;;;;;5048579;28;20029;-49
2022/12/21 00:16:13;;;;;;;6.13;5.53;;;20.70;45.70;;;;;;5026934;28;20431;-52
2022/12/21 00:18:40;;;;;;;6.93;5.78;;;20.70;45.70;;;;;;5050814;28;20033;-56
2022/12/21 00:21:17;;;;;;;6.88;5.93;;;20.70;45.60;;;;;;5042657;28;20021;-56
2022/12/21 00:23:47;;;;;;;6.47;5.78;;;20.70;45.60;;;;;;5047331;28;20062;-56
2022/12/21 00:26:15;;;;;;;6.28;5.25;;;20.70;45.60;;;;;;5044226;28;20025;-52
2022/12/21 00:28:41;;;;;;;7.38;6.15;;;20.70;45.60;;;;;;5030333;28;20140;-56
2022/12/21 00:31:13;;;;;;;7.22;5.90;;;20.70;45.50;;;;;;5043283;28;20029;-52
2022/12/21 00:33:41;;;;;;;7.60;6.80;;;20.70;45.50;;;;;;5045513;28;20369;-56
2022/12/21 00:36:09;;;;;;;7.05;6.05;;;20.70;45.50;;;;;;5043746;28;20032;-54
2022/12/21 00:38:35;;;;;;;6.65;5.95;;;20.70;45.60;;;;;;5047158;28;20061;-51
2022/12/21 00:41:07;;;;;;;6.85;6.13;;;20.70;45.60;;;;;;5049045;28;20025;-54
2022/12/21 00:43:35;;;;;;;6.97;5.90;;;20.70;45.60;;;;;;5048150;28;20072;-56
2022/12/21 00:46:02;;;;;;;7.30;6.25;;;20.70;45.60;;;;;;5047606;28;20037;-53
2022/12/21 00:48:29;;;;;;;6.70;6.00;;;20.70;45.50;;;;;;5031416;28;20051;-54
2022/12/21 00:51:07;;;;;;;8.82;6.90;;;20.70;45.50;;;;;;5043166;28;20037;-54
2022/12/21 00:53:33;;;;;;;7.05;6.25;;;20.70;45.50;;;;;;5043409;28;20033;-51
2022/12/21 00:56:01;;;;;;;7.68;6.30;;;20.60;45.40;;;;;;5044183;28;20348;-50
2022/12/21 00:58:29;;;;;;;6.70;5.93;;;20.60;45.40;;;;;;5026414;28;20068;-51
2022/12/21 01:00:56;;;;;;;6.95;6.03;;;20.60;45.40;;;;;;5025838;28;20028;-55
2022/12/21 01:03:23;;;;;;;8.07;6.35;;;20.60;45.40;;;;;;5027857;28;20380;-52
2022/12/21 01:05:51;;;;;;;7.88;6.00;;;20.60;45.30;;;;;;5041672;28;20021;-50
2022/12/21 01:08:18;;;;;;;6.63;5.95;;;20.60;45.30;;;;;;5048506;28;20123;-53
2022/12/21 01:10:44;;;;;;;7.07;6.38;;;20.60;45.30;;;;;;5046715;28;20115;-57
2022/12/21 01:13:11;;;;;;;7.93;6.30;;;20.60;45.20;;;;;;5027770;28;20120;-54
2022/12/21 01:15:45;;;;;;;7.55;6.57;;;20.60;45.20;;;;;;5045186;28;20059;-54
2022/12/21 01:18:13;;;;;;;8.15;6.13;;;20.60;45.20;;;;;;5044267;28;20074;-58
2022/12/21 01:20:41;;;;;;;7.70;6.55;;;20.60;45.20;;;;;;5041326;28;20471;-51
2022/12/21 01:23:07;;;;;;;7.22;6.53;;;20.60;45.20;;;;;;5049371;28;20021;-56
2022/12/21 01:25:33;;;;;;;7.53;6.72;;;20.60;45.20;;;;;;5047172;28;20036;-52
2022/12/21 01:27:59;;;;;;;8.25;6.78;;;20.60;45.20;;;;;;5028104;28;20072;-53
2022/12/21 01:30:25;;;;;;;8.07;6.72;;;20.60;45.20;;;;;;5042387;28;20037;-52
2022/12/21 01:32:51;;;;;;;8.25;7.20;;;20.50;45.20;;;;;;5040808;28;20025;-55
2022/12/21 01:35:18;;;;;;;7.88;6.22;;;20.60;45.20;;;;;;5041648;28;20033;-55
2022/12/21 01:37:44;;;;;;;9.60;7.38;;;20.50;45.20;;;;;;5041276;28;20032;-56
2022/12/21 01:40:10;;;;;;;7.18;6.47;;;20.50;45.10;;;;;;5044561;28;20033;-51
2022/12/21 01:42:36;;;;;;;8.75;7.07;;;20.50;45.10;;;;;;5040696;28;20090;-55
2022/12/21 01:45:13;;;;;;;7.35;6.55;;;20.60;45.20;;;;;;5045271;28;20116;-55
2022/12/21 01:47:52;;;;;;;10.13;7.18;;;20.50;45.20;;;;;;5022046;28;20048;-52
2022/12/21 01:50:39;;;;;;;8.45;7.10;;;20.50;45.10;;;;;;5037274;28;20021;-54
2022/12/21 01:53:23;;;;;;;7.75;6.95;;;20.50;45.20;;;;;;5027250;28;20099;-56
2022/12/21 01:55:53;;;;;;;8.90;7.75;;;20.50;45.20;;;;;;5036845;28;20032;-51
2022/12/21 01:58:22;;;;;;;8.02;7.00;;;20.50;45.20;;;;;;5026179;28;20059;-53
2022/12/21 02:00:48;;;;;;;8.57;7.40;;;20.50;45.20;;;;;;5044651;28;20407;-56
2022/12/21 02:03:19;;;;;;;8.02;7.03;;;20.50;45.30;;;;;;5041418;28;20033;-55
2022/12/21 02:05:54;;;;;;;7.97;7.00;;;20.50;45.20;;;;;;5038909;28;20029;-53
2022/12/21 02:08:21;;;;;;;9.02;7.07;;;20.50;45.20;;;;;;5045228;28;20038;-55
2022/12/21 02:10:47;;;;;;;8.27;7.30;;;20.50;45.20;;;;;;5027884;28;20044;-56
2022/12/21 02:13:14;;;;;;;7.65;6.93;;;20.50;45.30;;;;;;5028282;28;20460;-54
2022/12/21 02:16:15;;;;;;;9.43;6.95;;;20.50;45.30;;;;;;5040126;28;20092;-52
2022/12/21 02:19:02;;;;;;;7.25;6.53;;;20.50;45.30;;;;;;5045772;28;20132;-51
2022/12/21 02:21:33;;;;;;;7.68;6.82;;;20.50;45.20;;;;;;5046809;28;20037;-54
2022/12/21 02:24:30;;;;;;;7.90;7.10;;;20.40;45.20;;;;;;5042574;28;20099;-56
2022/12/21 02:27:06;;;;;;;7.72;6.50;;;20.50;45.30;;;;;;5024320;28;20029;-56
2022/12/21 02:29:44;;;;;;;7.78;7.00;;;20.50;45.40;;;;;;5042415;28;20107;-54
2022/12/21 02:32:23;;;;;;;9.02;6.70;;;20.50;45.30;;;;;;5026732;28;20099;-52
2022/12/21 02:35:01;;;;;;;7.55;6.63;;;20.40;45.30;;;;;;5026659;28;20120;-53
2022/12/21 02:37:28;;;;;;;8.07;6.60;;;20.40;45.30;;;;;;5028739;28;20043;-50
2022/12/21 02:40:20;;;;;;;8.57;7.25;;;20.40;45.30;;;;;;5047907;28;20108;-48
2022/12/21 02:45:52;;;;;;;8.15;6.82;;;20.40;45.30;;;;;;5045951;28;20048;-55
2022/12/21 02:48:42;;;;;;;7.13;6.43;;;20.40;45.30;;;;;;5044376;28;20049;-51
2022/12/21 02:51:15;;;;;;;7.35;6.50;;;20.40;45.30;;;;;;5026073;28;20033;-48
2022/12/21 02:53:42;;;;;;;6.75;6.15;;;20.40;45.30;;;;;;5039999;28;20061;-55
2022/12/21 02:56:19;;;;;;;6.75;5.88;;;20.40;45.40;;;;;;5023925;28;20364;-51
2022/12/21 02:58:46;;;;;;;8.32;6.38;;;20.40;45.40;;;;;;5021929;28;20025;-50
2022/12/21 03:01:55;;;;;;;6.80;5.93;;;20.40;45.40;;;;;;5025605;28;20036;-50
2022/12/21 03:04:51;;;;;;;7.30;6.15;;;20.40;45.30;;;;;;5024572;28;20036;-51
2022/12/21 03:07:52;;;;;;;7.25;6.22;;;20.40;45.30;;;;;;5031017;28;20425;-52
2022/12/21 03:10:25;;;;;;;7.70;6.57;;;20.40;45.30;;;;;;5031128;28;20057;-51
2022/12/21 03:13:25;;;;;;;7.95;6.25;;;20.40;45.30;;;;;;5028335;28;20348;-49
2022/12/21 03:16:12;;;;;;;8.23;6.63;;;20.40;45.30;;;;;;5024573;28;20057;-50
2022/12/21 03:18:50;;;;;;;7.60;6.20;;;20.30;45.20;;;;;;5025405;28;20411;-49
2022/12/21 03:21:33;;;;;;;7.40;6.43;;;20.40;45.30;;;;;;5010056;28;20384;-50
2022/12/21 03:24:10;;;;;;;9.02;6.35;;;20.40;45.30;;;;;;5043786;28;20033;-52
2022/12/21 03:26:54;;;;;;;6.65;5.72;;;20.30;45.20;;;;;;5045792;28;20052;-53
2022/12/21 03:29:26;;;;;;;7.30;6.53;;;20.40;45.30;;;;;;5044026;28;20037;-52
2022/12/21 03:31:59;;;;;;;6.80;6.10;;;20.40;45.30;;;;;;5045614;28;20363;-50
2022/12/21 03:34:32;;;;;;;6.68;5.95;;;20.30;45.20;;;;;;5045276;28;20120;-51
2022/12/21 03:37:12;;;;;;;7.22;5.65;;;20.30;45.20;;;;;;5045940;28;20029;-55
2022/12/21 03:39:43;;;;;;;7.40;5.38;;;20.30;45.20;;;;;;5043393;28;20415;-50
2022/12/21 03:42:23;;;;;;;7.38;6.20;;;20.30;45.20;;;;;;5041435;28;20031;-53
2022/12/21 03:45:01;;;;;;;6.63;5.90;;;20.30;45.20;;;;;;5024570;28;20029;-52
2022/12/21 03:47:39;;;;;;;6.93;5.75;;;20.30;45.20;;;;;;5020926;28;20032;-53
2022/12/21 03:50:11;;;;;;;6.30;5.57;;;20.30;45.20;;;;;;5040739;28;20037;-52
2022/12/21 03:52:48;;;;;;;7.15;6.03;;;20.30;45.20;;;;;;5043461;28;20029;-50
2022/12/21 03:55:24;;;;;;;6.70;6.00;;;20.30;45.20;;;;;;5044612;28;20035;-53
2022/12/21 03:57:52;;;;;;;6.78;6.07;;;20.30;45.20;;;;;;5046573;28;20021;-54
2022/12/21 04:00:18;;;;;;;6.57;5.95;;;20.30;45.20;;;;;;5044199;28;20055;-53
2022/12/21 04:03:37;;;;;;;5.93;5.32;;;20.30;45.20;;;;;;5045319;28;20033;-54
2022/12/21 04:06:09;;;;;;;6.75;6.00;;;20.30;45.20;;;;;;5023183;28;20440;-53
2022/12/21 04:08:37;;;;;;;6.72;5.43;;;20.30;45.20;;;;;;5048272;28;20049;-54
2022/12/21 04:11:03;;;;;;;6.32;5.72;;;20.30;45.20;;;;;;5045536;28;20567;-52
2022/12/21 04:13:28;;;;;;;6.35;5.65;;;20.30;45.80;;;;;;5051105;28;20032;-55
2022/12/21 04:16:03;;;;;;;9.15;6.18;;;20.30;45.20;;;;;;5042301;28;20052;-52
2022/12/21 04:21:14;;;;;;;6.97;5.63;;;20.30;45.20;;;;;;5047299;28;20334;-54
2022/12/21 04:29:10;;;;;;;7.03;5.78;;;20.20;45.20;;;;;;5044413;28;20037;-55
2022/12/21 04:31:35;;;;;;;6.60;5.90;;;20.30;45.20;;;;;;5047393;28;20543;-56
2022/12/21 04:34:02;;;;;;;9.50;6.40;;;20.30;45.20;;;;;;5047289;28;20021;-54
2022/12/21 04:39:13;;;;;;;7.13;6.03;;;20.20;45.20;;;;;;5044022;28;20100;-51
2022/12/21 04:41:39;;;;;;;7.38;5.80;;;20.30;45.30;;;;;;5044077;28;20124;-55
2022/12/21 04:44:06;;;;;;;6.75;6.05;;;20.30;45.30;;;;;;5047880;28;20035;-54
2022/12/21 04:46:32;;;;;;;6.30;5.68;;;20.20;45.20;;;;;;5042707;28;20029;-54
2022/12/21 04:48:58;;;;;;;6.53;5.50;;;20.20;45.20;;;;;;5030509;28;20083;-50
2022/12/21 04:51:25;;;;;;;8.32;6.20;;;20.30;45.30;;;;;;5043380;28;20524;-54
2022/12/21 04:53:52;;;;;;;6.70;5.70;;;20.20;45.20;;;;;;5041617;28;20036;-56
2022/12/21 04:56:18;;;;;;;7.95;5.57;;;20.20;45.20;;;;;;5041180;28;20024;-53
2022/12/21 04:58:44;;;;;;;6.40;5.78;;;20.20;45.20;;;;;;5042564;28;20091;-53
2022/12/21 05:01:12;;;;;;;6.80;5.28;;;20.20;45.20;;;;;;5044867;28;20033;-52
2022/12/21 05:03:38;;;;;;;7.00;5.60;;;20.20;45.20;;;;;;5042172;28;20414;-52
2022/12/21 05:06:04;;;;;;;6.10;5.45;;;20.20;45.20;;;;;;5043440;28;20095;-51
2022/12/21 05:08:30;;;;;;;7.30;6.10;;;20.20;45.20;;;;;;5046599;28;20432;-55
2022/12/21 05:11:07;;;;;;;6.93;5.82;;;20.20;45.20;;;;;;5025098;28;20108;-50
2022/12/21 05:13:33;;;;;;;6.68;5.68;;;20.20;45.20;;;;;;5048719;28;20052;-52
2022/12/21 05:16:07;;;;;;;7.13;5.72;;;20.20;45.20;;;;;;5042388;28;20084;-53
2022/12/21 05:18:34;;;;;;;6.03;5.43;;;20.20;45.20;;;;;;5044831;28;20361;-55
2022/12/21 05:21:00;;;;;;;5.70;5.13;;;20.20;45.20;;;;;;5044555;28;20026;-54
2022/12/21 05:23:26;;;;;;;5.78;5.10;;;20.20;45.20;;;;;;5046581;28;20032;-54
2022/12/21 05:25:53;;;;;;;5.70;5.13;;;20.20;45.20;;;;;;5044231;28;20029;-55
2022/12/21 05:28:19;;;;;;;5.53;4.90;;;20.20;45.20;;;;;;5048927;28;20040;-52
2022/12/21 05:30:45;;;;;;;6.25;5.18;;;20.20;45.20;;;;;;5046337;28;20041;-52
2022/12/21 05:33:11;;;;;;;5.80;4.90;;;20.20;45.20;;;;;;5046029;28;20017;-53
2022/12/21 05:35:40;;;;;;;6.93;5.32;;;20.20;45.10;;;;;;5046240;28;20395;-53
2022/12/21 05:38:07;;;;;;;8.05;5.85;;;20.20;45.10;;;;;;5044971;28;20025;-51
2022/12/21 05:40:33;;;;;;;6.07;5.47;;;20.20;45.10;;;;;;5042709;28;20053;-54
2022/12/21 05:43:00;;;;;;;7.30;5.57;;;20.20;45.10;;;;;;5044156;28;20018;-54
2022/12/21 05:45:26;;;;;;;6.35;5.63;;;20.20;45.10;;;;;;5041190;28;20021;-52
2022/12/21 05:47:53;;;;;;;6.10;5.50;;;20.20;45.10;;;;;;5045717;28;20041;-51
2022/12/21 05:50:19;;;;;;;7.00;5.90;;;20.20;45.10;;;;;;5044489;28;20119;-52
2022/12/21 05:52:45;;;;;;;6.13;5.53;;;20.20;45.10;;;;;;5049935;28;20115;-49
2022/12/21 05:55:10;;;;;;;7.22;5.85;;;20.20;45.10;;;;;;5039676;28;20041;-54
2022/12/21 05:57:36;;;;;;;6.82;6.03;;;20.10;45.10;;;;;;5046473;28;20107;-48
2022/12/21 06:00:03;;;;;;;6.53;5.88;;;20.10;45.10;;;;;;5045394;28;20044;-51
2022/12/21 06:02:38;;;;;;;7.25;6.03;;;20.20;45.10;;;;;;5043477;28;20068;-51
2022/12/21 06:05:04;;;;;;;6.50;5.90;;;20.10;45.10;;;;;;5048860;28;20032;-53
2022/12/21 06:07:30;;;;;;;6.95;5.65;;;20.10;45.10;;;;;;5045648;28;20025;-51
2022/12/21 06:09:56;;;;;;;7.50;6.40;;;20.10;45.10;;;;;;5044185;28;20047;-55
2022/12/21 06:12:22;;;;;;;7.57;5.93;;;20.10;45.10;;;;;;5048775;28;20048;-53
2022/12/21 06:14:48;;;;;;;7.10;6.10;;;20.10;45.10;;;;;;5043276;28;20351;-54
2022/12/21 06:17:14;;;;;;;7.43;6.07;;;20.10;45.20;;;;;;5024646;28;20042;-48
2022/12/21 06:19:40;;;;;;;8.18;6.35;;;20.10;45.20;;;;;;5025206;28;20357;-48
2022/12/21 06:22:06;;;;;;;8.15;6.63;;;20.10;45.20;;;;;;5025766;28;20087;-50
2022/12/21 06:24:31;;;;;;;7.18;6.00;;;20.10;45.20;;;;;;5028194;28;20048;-55
2022/12/21 06:26:57;;;;;;;7.07;5.95;;;20.10;45.20;;;;;;5029377;28;20026;-56
2022/12/21 06:29:23;;;;;;;7.50;6.70;;;20.10;45.20;;;;;;5026544;28;20472;-57
2022/12/21 06:31:49;;;;;;;8.02;7.20;;;20.10;45.10;;;;;;5022780;28;20127;-56
2022/12/21 06:34:14;;;;;;;7.10;6.22;;;20.10;45.20;;;;;;5027356;28;20448;-55
2022/12/21 06:36:40;;;;;;;8.23;6.55;;;20.10;45.10;;;;;;5021220;28;20129;-52
2022/12/21 06:39:06;;;;;;;7.55;6.10;;;20.10;45.10;;;;;;5021860;28;20726;-56
2022/12/21 06:41:32;;;;;;;8.52;6.65;;;20.10;45.10;;;;;;5026014;28;20072;-54
2022/12/21 06:43:58;;;;;;;7.80;6.50;;;20.10;45.10;;;;;;5022967;28;20025;-52
2022/12/21 06:46:24;;;;;;;8.95;6.47;;;20.10;45.10;;;;;;5025130;28;20350;-53
2022/12/21 06:48:50;;;;;;;7.78;6.07;;;20.10;45.80;;;;;;5026958;28;20048;-49
2022/12/21 06:51:19;;;;;;;6.72;6.03;;;20.10;45.10;;;;;;5024472;28;22152;-54
2022/12/21 06:53:47;;;;;;;9.55;6.93;;;20.10;45.10;;;;;;5019524;28;20362;-53
2022/12/21 06:56:24;;;;;;;7.80;6.13;;;20.10;45.10;;;;;;5026221;28;20065;-52
2022/12/21 06:58:52;;;;;;;7.10;6.18;;;20.00;45.10;;;;;;5027456;28;20040;-55
2022/12/21 07:01:23;;;;;;;7.18;5.82;;;20.00;45.10;;;;;;5021706;28;20018;-53
2022/12/21 07:03:50;;;;;;;7.32;5.97;;;20.00;45.10;;;;;;5028667;28;20353;-54
2022/12/21 07:06:17;;;;;;;6.55;5.65;;;20.00;45.10;;;;;;5024060;28;20032;-56
2022/12/21 07:08:44;;;;;;;6.63;5.93;;;20.00;45.70;;;;;;5028196;28;20071;-52
2022/12/21 07:11:15;;;;;;;7.38;6.05;;;20.00;45.10;;;;;;5026717;28;20037;-52
2022/12/21 07:13:43;;;;;;;6.65;5.43;;;20.00;45.10;;;;;;5024360;28;20036;-55
2022/12/21 07:16:10;;;;;;;7.68;6.22;;;20.00;45.10;;;;;;5033978;28;20042;-48
2022/12/21 07:18:37;;;;;;;7.25;5.65;;;20.00;45.10;;;;;;5051534;28;20045;-54
2022/12/21 07:21:06;;;;;;;8.30;6.65;;;20.00;45.10;;;;;;5045688;28;20037;-56
2022/12/21 07:23:34;;;;;;;8.65;6.40;;;20.00;45.10;;;;;;5045625;28;20040;-54
2022/12/21 07:26:00;;;;;;;6.97;6.00;;;20.00;45.10;;;;;;5046270;28;20053;-47
2022/12/21 07:28:26;;;;;;;8.85;6.13;;;20.00;45.10;;;;;;5046686;28;20057;-52
2022/12/21 07:31:02;;;;;;;7.45;6.00;;;20.00;45.10;;;;;;5027414;28;20492;-53
2022/12/21 07:33:29;;;;;;;7.50;6.20;;;20.00;45.10;;;;;;5047984;28;20021;-52
2022/12/21 07:35:59;;;;;;;7.72;5.85;;;20.00;45.10;;;;;;5049233;28;20066;-56
2022/12/21 07:38:27;;;;;;;7.25;5.60;;;20.00;45.10;;;;;;5049254;28;20033;-52
2022/12/21 07:40:58;;;;;;;6.47;5.70;;;20.00;45.10;;;;;;5048633;28;20036;-53
2022/12/21 07:43:24;;;;;;;6.32;5.50;;;20.00;45.10;;;;;;5051242;28;20071;-54
2022/12/21 07:46:06;;;;;;;6.55;5.60;;;20.00;45.10;;;;;;5031807;28;20114;-54
2022/12/21 07:48:34;;;;;;;7.43;6.22;;;20.00;45.20;;;;;;5032118;28;20087;-52
2022/12/21 07:51:02;;;;;;;8.27;5.97;;;20.00;45.10;;;;;;5048991;28;20350;-56
2022/12/21 07:53:28;;;;;;;10.38;6.43;;;20.00;45.10;;;;;;5050022;28;20079;-57
2022/12/21 07:56:02;;;;;;;7.32;5.93;;;20.00;45.10;;;;;;5047818;28;20029;-52
2022/12/21 07:58:28;;;;;;;7.32;5.78;;;20.00;45.10;;;;;;5050792;28;20339;-52
2022/12/21 08:00:54;;;;;;;8.60;5.78;;;20.00;45.10;;;;;;5049151;28;20033;-56
2022/12/21 08:03:20;;;;;;;7.07;5.90;;;20.00;45.20;;;;;;5051171;28;20025;-54
2022/12/21 08:05:45;;;;;;;7.32;5.18;;;20.00;45.20;;;;;;5047361;28;20372;-49
2022/12/21 08:08:11;;;;;;;8.63;4.97;;;20.00;45.20;;;;;;5047998;28;20041;-52
2022/12/21 08:10:37;;;;;;;7.32;4.40;;;20.00;45.20;;;;;;5048458;28;20029;-49
2022/12/21 08:13:03;;;;;;;7.78;4.53;;;20.00;45.30;;;;;;5048096;28;20042;-50
2022/12/21 08:15:29;;;;;;;5.18;3.83;;;20.00;45.40;;;;;;5048242;28;20039;-54
2022/12/21 08:17:55;;;;;;;6.38;4.38;;;20.00;45.40;;;;;;5051017;28;20056;-54
2022/12/21 08:20:21;;;;;;;6.75;4.20;;;20.10;45.50;;;;;;5051130;28;20130;-52
2022/12/21 08:22:47;;;;;;;5.18;4.40;;;20.10;45.50;;;;;;5051790;28;20036;-53
2022/12/21 08:25:12;;;;;;;7.28;4.25;;;20.20;45.50;;;;;;5048926;28;20021;-54
2022/12/21 08:27:38;;;;;;;8.63;4.25;;;20.20;45.40;;;;;;5048398;28;20376;-54
2022/12/21 08:30:05;;;;;;;6.25;4.53;;;20.20;45.40;;;;;;5047846;28;20360;-53
2022/12/21 08:32:31;;;;;;;7.95;4.65;;;20.30;45.40;;;;;;5044722;28;20033;-54
2022/12/21 08:34:57;;;;;;;6.80;4.28;;;20.30;45.30;;;;;;5047859;28;20040;-56
2022/12/21 08:37:23;;;;;;;6.72;4.20;;;20.40;45.20;;;;;;5044284;28;20451;-52
2022/12/21 08:39:49;;;;;;;7.70;4.03;;;20.50;45.20;;;;;;5049530;28;20036;-50
2022/12/21 08:42:14;;;;;;;7.30;4.18;;;20.50;45.00;;;;;;5031202;28;20090;-52
2022/12/21 08:44:40;;;;;;;6.20;3.75;;;20.60;45.00;;;;;;5044376;28;20025;-50
2022/12/21 08:47:06;;;;;;;7.25;4.40;;;20.60;44.80;;;;;;5049341;28;20409;-53
2022/12/21 08:49:32;;;;;;;5.85;3.95;;;20.70;44.80;;;;;;5025630;28;20045;-55
2022/12/21 08:51:58;;;;;;;6.82;3.92;;;20.70;44.70;;;;;;5048550;28;20016;-52
2022/12/21 08:54:25;;;;;;;5.05;3.58;;;20.80;44.70;;;;;;5049070;28;20027;-53
2022/12/21 08:56:51;;;;;;;6.35;3.60;;;20.90;44.60;;;;;;5032062;28;20028;-53
2022/12/21 08:59:17;;;;;;;6.47;4.00;;;20.90;44.40;;;;;;5049562;28;20033;-51
2022/12/21 09:01:42;;;;;;;6.80;3.67;;;21.00;44.30;;;;;;5049516;28;20025;-52
2022/12/21 09:04:08;;;;;;;6.18;3.38;;;21.00;44.20;;;;;;5049676;28;20021;-53
2022/12/21 09:06:34;;;;;;;5.38;3.50;;;21.00;44.00;;;;;;5030939;28;20052;-50
2022/12/21 09:09:00;;;;;;;5.13;3.33;;;21.10;44.00;;;;;;5047958;28;20060;-52
2022/12/21 09:11:27;;;;;;;5.95;3.50;;;21.10;43.80;;;;;;5049677;28;20047;-54
2022/12/21 09:13:53;;;;;;;5.43;3.55;;;21.20;43.80;;;;;;5052888;28;20411;-50
2022/12/21 09:16:21;;;;;;;4.00;2.80;;;21.20;43.60;;;;;;5049433;28;20049;-52
2022/12/21 09:18:48;;;;;;;4.80;3.13;;;21.20;43.50;;;;;;5046234;28;20452;-51
2022/12/21 09:21:16;;;;;;;7.03;2.90;;;21.30;43.40;;;;;;5044823;28;20043;-56
2022/12/21 09:23:42;;;;;;;3.70;2.72;;;21.30;43.20;;;;;;5027447;28;20380;-51
2022/12/21 09:26:08;;;;;;;4.40;2.72;;;21.40;43.10;;;;;;5046450;28;20024;-52
2022/12/21 09:28:35;;;;;;;4.88;2.83;;;21.40;43.00;;;;;;5053417;28;20041;-51
2022/12/21 09:31:11;;;;;;;5.13;2.63;;;21.40;42.90;;;;;;5050920;28;20037;-52
2022/12/21 09:33:39;;;;;;;3.00;2.08;;;21.50;42.80;;;;;;5029414;28;20032;-52
2022/12/21 09:36:05;;;;;;;3.25;2.42;;;21.50;42.70;;;;;;5043397;28;20187;-57
2022/12/21 09:38:32;;;;;;;5.35;2.45;;;21.50;42.60;;;;;;5045263;28;20029;-54
2022/12/21 09:41:04;;;;;;;4.65;2.20;;;21.60;42.50;;;;;;5044465;28;20020;-53
2022/12/21 09:44:07;;;;;;;6.38;2.40;;;21.60;42.40;;;;;;5044153;28;20036;-53
2022/12/21 09:46:38;;;;;;;3.08;2.03;;;21.60;42.30;;;;;;5025807;28;20076;-52
2022/12/21 09:49:10;;;;;;;2.92;1.80;;;21.60;42.20;;;;;;5043831;28;20033;-50
2022/12/21 09:51:36;;;;;;;2.72;1.88;;;21.60;42.10;;;;;;5046669;28;20392;-51
2022/12/21 09:54:15;;;;;;;2.63;1.60;;;21.70;42.20;;;;;;5044060;28;20040;-52
2022/12/21 09:56:45;;;;;;;2.42;1.60;;;21.70;42.00;;;;;;5046491;28;20033;-54
2022/12/21 09:59:14;;;;;;;2.85;1.80;;;21.70;42.00;;;;;;5044067;28;20109;-53
2022/12/21 10:01:58;;;;;;;2.97;1.75;;;21.70;41.90;;;;;;5046945;28;20095;-52
2022/12/21 10:04:46;;;;;;;2.92;1.92;;;21.70;41.90;;;;;;5043866;28;20032;-49
2022/12/21 10:07:17;;;;;;;3.75;1.90;;;21.70;41.80;;;;;;5045068;28;20082;-60
2022/12/21 10:10:06;;;;;;;3.17;1.90;;;21.70;41.80;;;;;;5044419;28;20120;-52
2022/12/21 10:12:41;;;;;;;3.08;1.90;;;21.70;41.90;;;;;;5044217;28;20029;-51
2022/12/21 10:15:16;;;;;;;;;;;21.70;42.00;;;;;;5042312;28;20029;-59
2022/12/21 10:18:00;;;;;;;3.05;1.60;;;21.80;42.10;;;;;;5047169;28;20010;-51
2022/12/21 10:21:09;;;;;;;3.42;2.00;;;21.70;42.30;;;;;;5025381;28;20021;-55
2022/12/21 10:23:41;;;;;;;2.45;1.70;;;21.70;42.80;;;;;;5043479;28;20469;-53
2022/12/21 10:26:14;;;;;;;3.47;2.10;;;21.70;43.20;;;;;;5043337;28;20154;-52
2022/12/21 10:28:53;;;;;;;3.97;1.88;;;21.80;43.40;;;;;;5043588;28;20033;-57
2022/12/21 10:31:37;;;;;;;3.95;2.05;;;21.70;43.50;;;;;;5045466;28;20518;-55
2022/12/21 10:34:17;;;;;;;4.00;1.92;;;21.80;43.60;;;;;;5042359;28;20094;-55
2022/12/21 10:36:45;;;;;;;4.75;1.73;;;21.80;43.70;;;;;;5044677;28;20036;-55
2022/12/21 10:39:15;;;;;;;3.45;1.52;;;21.80;43.60;;;;;;5043347;28;20103;-54
2022/12/21 10:41:47;;;;;;;3.30;2.03;;;21.80;43.60;;;;;;5045927;28;20429;-56
2022/12/21 10:44:14;;;;;;;3.10;1.55;;;21.80;43.60;;;;;;5045475;28;20060;-54
2022/12/21 10:46:40;;;;;;;3.80;2.20;;;21.80;43.60;;;;;;5045998;28;20488;-53
2022/12/21 10:49:25;;;;;;;4.20;1.90;;;21.90;43.60;;;;;;5043295;28;20025;-54
2022/12/21 10:51:51;;;;;;;3.58;2.03;;;21.90;43.50;;;;;;5044610;28;20075;-53
2022/12/21 10:54:28;;;;;;;5.05;1.95;;;21.90;43.50;;;;;;5043689;28;20021;-54
2022/12/21 10:56:58;;;;;;;3.92;1.98;;;21.90;43.50;;;;;;5046159;28;20025;-55
2022/12/21 10:59:29;;;;;;;4.40;2.15;;;22.00;43.40;;;;;;5030530;28;20035;-60
2022/12/21 11:01:56;;;;;;;5.45;2.10;;;22.00;43.30;;;;;;5007870;28;20048;-57
2022/12/21 11:04:21;;;;;;;4.03;1.60;;;22.00;43.20;;;;;;5028349;28;20456;-51
2022/12/21 11:06:59;;;;;;;4.40;1.88;;;22.00;43.20;;;;;;5047626;28;20087;-48
2022/12/21 11:09:35;;;;;;;5.10;1.98;;;22.10;43.10;;;;;;5050527;28;20356;-49
2022/12/21 11:12:19;;;;;;;3.72;2.30;;;22.10;42.90;;;;;;5045682;28;20032;-53
2022/12/21 11:14:51;;;;;;;4.47;2.10;;;22.10;42.70;;;;;;5046372;28;20039;-48
2022/12/21 11:17:24;;;;;;;4.07;2.03;;;22.10;42.60;;;;;;5046216;28;20157;-47
2022/12/21 11:19:59;;;;;;;4.03;1.90;;;22.10;42.50;;;;;;5046807;28;20467;-49
2022/12/21 11:22:27;;;;;;;5.35;2.38;;;22.10;42.40;;;;;;5050012;28;20033;-47
2022/12/21 11:25:01;;;;;;;4.85;2.63;;;22.10;42.30;;;;;;5054406;28;20060;-50
2022/12/21 11:27:32;;;;;;;3.75;2.45;;;22.10;42.30;;;;;;5036620;28;20483;-49
2022/12/21 11:30:06;;;;;;;3.05;2.20;;;22.10;42.20;;;;;;5053632;28;20464;-50
2022/12/21 11:32:33;;;;;;;3.53;2.35;;;22.10;42.10;;;;;;5053828;28;20021;-51
2022/12/21 11:35:04;;;;;;;4.57;2.38;;;22.10;42.10;;;;;;5053530;28;20033;-51
2022/12/21 11:37:36;;;;;;;3.92;2.10;;;22.10;42.00;;;;;;5036088;28;20346;-48
2022/12/21 11:40:11;;;;;;;3.35;2.00;;;22.10;42.00;;;;;;5053774;28;20025;-51
2022/12/21 11:42:55;;;;;;;4.75;2.50;;;22.10;41.90;;;;;;5057794;28;20102;-50
2022/12/21 11:45:40;;;;;;;5.28;2.75;;;22.10;41.80;;;;;;5052432;28;20056;-54
2022/12/21 11:48:43;;;;;;;3.50;2.40;;;22.10;42.40;;;;;;5057482;28;20124;-51
2022/12/21 11:51:30;;;;;;;4.47;2.60;;;22.00;41.70;;;;;;5057897;28;20094;-52
2022/12/21 11:54:38;;;;;;;6.20;2.92;;;22.00;41.70;;;;;;5046489;28;20031;-55
2022/12/21 11:57:30;;;;;;;4.07;2.50;;;22.00;41.60;;;;;;5037613;28;20032;-48
2022/12/21 12:00:10;;;;;;;2.95;2.25;;;22.00;41.80;;;;;;5056206;28;20504;-50
2022/12/21 12:02:53;;;;;;;5.72;3.20;;;22.00;41.70;;;;;;5055702;28;20025;-52
2022/12/21 12:05:54;;;;;;;4.47;2.63;;;22.00;41.60;;;;;;5062232;28;20021;-50
2022/12/21 12:08:38;;;;;;;3.03;2.20;;;22.00;41.70;;;;;;5035891;28;20045;-48
2022/12/21 12:11:39;;;;;;;3.92;2.65;;;22.00;41.70;;;;;;5055926;28;20440;-48
2022/12/21 12:14:34;;;;;;;4.43;2.30;;;21.90;41.60;;;;;;5038490;28;20047;-51
2022/12/21 12:17:22;;;;;;;4.85;2.53;;;21.90;41.60;;;;;;5053965;28;20041;-49
2022/12/21 12:20:08;;;;;;;4.65;2.33;;;21.90;41.50;;;;;;5038772;28;20116;-49
2022/12/21 12:23:08;;;;;;;3.70;2.33;;;21.90;41.60;;;;;;5052782;28;20090;-49
2022/12/21 12:25:34;;;;;;;4.72;2.45;;;21.90;41.50;;;;;;5038673;28;20052;-54
2022/12/21 12:28:30;;;;;;;4.15;2.00;;;21.80;41.50;;;;;;5055807;28;20037;-53
2022/12/21 12:31:30;;;;;;;5.47;2.25;;;21.90;41.60;;;;;;5048468;28;20029;-55
2022/12/21 12:34:14;;;;;;;4.00;2.05;;;21.90;41.60;;;;;;5052366;28;20033;-54
2022/12/21 12:36:51;;;;;;;3.75;2.10;;;21.80;41.60;;;;;;5054715;28;20044;-54
2022/12/21 12:39:44;;;;;;;3.65;2.08;;;21.80;41.60;;;;;;5037233;28;20475;-52
2022/12/21 12:42:25;;;;;;;3.80;2.13;;;21.80;41.60;;;;;;5055877;28;20451;-50
2022/12/21 12:45:00;;;;;;;4.60;2.50;;;21.80;41.80;;;;;;5038517;28;20025;-52
2022/12/21 12:47:41;;;;;;;3.80;1.80;;;21.80;42.10;;;;;;5038265;28;20399;-53
2022/12/21 12:50:32;;;;;;;3.60;2.00;;;21.80;41.80;;;;;;5040852;28;20028;-52
2022/12/21 12:53:17;;;;;;;5.00;1.92;;;21.80;41.70;;;;;;5055877;28;20380;-50
2022/12/21 12:56:04;;;;;;;3.47;1.65;;;21.80;41.70;;;;;;5047214;28;20432;-50
2022/12/21 12:58:36;;;;;;;4.35;2.10;;;21.80;41.70;;;;;;5069963;28;20463;-52
2022/12/21 13:01:35;;;;;;;2.92;1.75;;;21.80;41.70;;;;;;5050518;28;20033;-48
2022/12/21 13:04:21;;;;;;;6.00;2.17;;;21.80;41.60;;;;;;5013082;28;20444;-50
2022/12/21 13:06:59;;;;;;;4.15;1.90;;;21.80;41.60;;;;;;5052317;28;20357;-47
2022/12/21 13:09:54;;;;;;;3.97;1.90;;;21.70;41.60;;;;;;5036088;28;20304;-49
2022/12/21 13:12:23;;;;;;;3.35;1.80;;;21.80;41.70;;;;;;5041301;28;20112;-53
2022/12/21 13:15:30;;;;;;;2.60;1.73;;;21.80;41.90;;;;;;5052629;28;20028;-54
2022/12/21 13:18:02;;;;;;;3.38;1.90;;;21.80;42.20;;;;;;5013218;28;20482;-58
2022/12/21 13:20:29;;;;;;;3.33;1.90;;;21.80;42.20;;;;;;5015377;28;20442;-54
2022/12/21 13:23:02;;;;;;;3.38;2.08;;;21.90;42.40;;;;;;5016396;28;20066;-56
2022/12/21 13:25:49;;;;;;;2.90;1.58;;;22.00;42.30;;;;;;5015870;28;20468;-57
2022/12/21 13:28:21;;;;;;;5.65;2.10;;;22.10;42.20;;;;;;5015158;28;20453;-58
2022/12/21 13:30:51;;;;;;;4.95;2.05;;;22.20;42.00;;;;;;5011800;28;20026;-59